sensor_id;sensor_type;location;lat;lon;timestamp;temperature;humidity
17252;DHT22;8742;51.716;8.790;2023-07-13T00:01:46;17.90;91.10
17252;DHT22;8742;51.716;8.790;2023-07-13T00:04:15;17.80;91.10
17252;DHT22;8742;51.716;8.790;2023-07-13T00:06:42;17.80;91.40
17252;DHT22;8742;51.716;8.790;2023-07-13T00:09:10;17.70;92.00
17252;DHT22;8742;51.716;8.790;2023-07-13T00:11:38;17.70;92.40
17252;DHT22;8742;51.716;8.790;2023-07-13T00:14:05;17.60;92.70
17252;DHT22;8742;51.716;8.790;2023-07-13T00:16:34;17.60;93.10
17252;DHT22;8742;51.716;8.790;2023-07-13T00:19:01;17.60;92.80
17252;DHT22;8742;51.716;8.790;2023-07-13T00:21:28;17.60;93.60
17252;DHT22;8742;51.716;8.790;2023-07-13T00:23:55;17.60;93.70
17252;DHT22;8742;51.716;8.790;2023-07-13T00:26:22;17.60;93.70
17252;DHT22;8742;51.716;8.790;2023-07-13T00:28:49;17.60;94.00
17252;DHT22;8742;51.716;8.790;2023-07-13T00:31:15;17.50;94.70
17252;DHT22;8742;51.716;8.790;2023-07-13T00:33:44;17.50;94.80
17252;DHT22;8742;51.716;8.790;2023-07-13T00:36:11;17.50;95.10
17252;DHT22;8742;51.716;8.790;2023-07-13T00:38:38;17.40;95.00
17252;DHT22;8742;51.716;8.790;2023-07-13T00:41:05;17.30;95.60
17252;DHT22;8742;51.716;8.790;2023-07-13T00:43:32;17.20;95.50
17252;DHT22;8742;51.716;8.790;2023-07-13T00:46:24;17.20;96.10
17252;DHT22;8742;51.716;8.790;2023-07-13T00:48:54;17.10;97.00
17252;DHT22;8742;51.716;8.790;2023-07-13T00:51:27;17.00;96.80
17252;DHT22;8742;51.716;8.790;2023-07-13T00:53:57;17.00;97.60
17252;DHT22;8742;51.716;8.790;2023-07-13T00:56:25;16.90;98.00
17252;DHT22;8742;51.716;8.790;2023-07-13T00:58:54;16.90;98.70
17252;DHT22;8742;51.716;8.790;2023-07-13T01:01:21;16.80;98.80
17252;DHT22;8742;51.716;8.790;2023-07-13T01:03:48;16.70;99.30
17252;DHT22;8742;51.716;8.790;2023-07-13T01:06:17;16.70;99.90
17252;DHT22;8742;51.716;8.790;2023-07-13T01:08:44;16.70;99.90
17252;DHT22;8742;51.716;8.790;2023-07-13T01:11:10;16.60;99.90
17252;DHT22;8742;51.716;8.790;2023-07-13T01:13:37;16.60;99.90
17252;DHT22;8742;51.716;8.790;2023-07-13T01:16:13;16.60;99.90
17252;DHT22;8742;51.716;8.790;2023-07-13T01:18:41;16.60;99.90
17252;DHT22;8742;51.716;8.790;2023-07-13T01:21:09;16.60;99.90
17252;DHT22;8742;51.716;8.790;2023-07-13T01:23:36;16.60;99.90
17252;DHT22;8742;51.716;8.790;2023-07-13T01:26:03;16.60;99.90
17252;DHT22;8742;51.716;8.790;2023-07-13T01:28:30;16.60;99.90
17252;DHT22;8742;51.716;8.790;2023-07-13T01:30:58;16.60;99.90
17252;DHT22;8742;51.716;8.790;2023-07-13T01:33:25;16.70;99.90
17252;DHT22;8742;51.716;8.790;2023-07-13T01:35:52;16.70;99.90
17252;DHT22;8742;51.716;8.790;2023-07-13T01:38:22;16.80;99.90
17252;DHT22;8742;51.716;8.790;2023-07-13T01:40:49;16.90;99.90
17252;DHT22;8742;51.716;8.790;2023-07-13T01:43:16;16.90;99.90
17252;DHT22;8742;51.716;8.790;2023-07-13T01:45:43;16.90;99.90
17252;DHT22;8742;51.716;8.790;2023-07-13T01:48:11;16.90;99.90
17252;DHT22;8742;51.716;8.790;2023-07-13T01:50:37;17.00;99.90
17252;DHT22;8742;51.716;8.790;2023-07-13T01:53:05;17.00;99.90
17252;DHT22;8742;51.716;8.790;2023-07-13T01:55:34;17.10;99.90
17252;DHT22;8742;51.716;8.790;2023-07-13T01:58:01;17.10;99.90
17252;DHT22;8742;51.716;8.790;2023-07-13T02:00:28;17.10;99.90
17252;DHT22;8742;51.716;8.790;2023-07-13T02:02:55;17.10;99.90
17252;DHT22;8742;51.716;8.790;2023-07-13T02:05:22;17.10;99.90
17252;DHT22;8742;51.716;8.790;2023-07-13T02:07:49;17.10;99.90
17252;DHT22;8742;51.716;8.790;2023-07-13T02:10:16;17.00;99.90
17252;DHT22;8742;51.716;8.790;2023-07-13T02:12:45;17.00;99.90
17252;DHT22;8742;51.716;8.790;2023-07-13T02:15:12;17.00;99.90
17252;DHT22;8742;51.716;8.790;2023-07-13T02:17:38;16.90;99.90
17252;DHT22;8742;51.716;8.790;2023-07-13T02:20:06;16.90;99.90
17252;DHT22;8742;51.716;8.790;2023-07-13T02:22:33;16.90;99.90
17252;DHT22;8742;51.716;8.790;2023-07-13T02:25:00;16.90;99.90
17252;DHT22;8742;51.716;8.790;2023-07-13T02:27:27;16.90;99.90
17252;DHT22;8742;51.716;8.790;2023-07-13T02:29:55;16.90;99.90
17252;DHT22;8742;51.716;8.790;2023-07-13T02:32:22;16.80;99.90
17252;DHT22;8742;51.716;8.790;2023-07-13T02:34:50;16.80;99.90
17252;DHT22;8742;51.716;8.790;2023-07-13T02:37:17;16.80;99.90
17252;DHT22;8742;51.716;8.790;2023-07-13T02:39:44;16.70;99.90
17252;DHT22;8742;51.716;8.790;2023-07-13T02:42:11;16.60;99.90
17252;DHT22;8742;51.716;8.790;2023-07-13T02:44:38;16.60;99.90
17252;DHT22;8742;51.716;8.790;2023-07-13T02:47:07;16.50;99.90
17252;DHT22;8742;51.716;8.790;2023-07-13T02:49:33;16.50;99.90
17252;DHT22;8742;51.716;8.790;2023-07-13T02:52:00;16.40;99.90
17252;DHT22;8742;51.716;8.790;2023-07-13T02:54:27;16.30;99.90
17252;DHT22;8742;51.716;8.790;2023-07-13T02:56:54;16.30;99.90
17252;DHT22;8742;51.716;8.790;2023-07-13T02:59:21;16.20;99.90
17252;DHT22;8742;51.716;8.790;2023-07-13T03:01:48;16.20;99.90
17252;DHT22;8742;51.716;8.790;2023-07-13T03:04:16;16.10;99.90
17252;DHT22;8742;51.716;8.790;2023-07-13T03:06:45;16.10;99.90
17252;DHT22;8742;51.716;8.790;2023-07-13T03:09:12;16.10;99.90
17252;DHT22;8742;51.716;8.790;2023-07-13T03:11:39;16.00;99.90
17252;DHT22;8742;51.716;8.790;2023-07-13T03:14:06;16.00;99.90
17252;DHT22;8742;51.716;8.790;2023-07-13T03:16:33;16.00;99.90
17252;DHT22;8742;51.716;8.790;2023-07-13T03:19:00;15.90;99.90
17252;DHT22;8742;51.716;8.790;2023-07-13T03:21:28;15.90;99.90
17252;DHT22;8742;51.716;8.790;2023-07-13T03:23:55;15.80;99.90
17252;DHT22;8742;51.716;8.790;2023-07-13T03:26:22;15.80;99.90
17252;DHT22;8742;51.716;8.790;2023-07-13T03:28:49;15.80;99.90
17252;DHT22;8742;51.716;8.790;2023-07-13T03:31:18;15.80;99.90
17252;DHT22;8742;51.716;8.790;2023-07-13T03:33:46;15.80;99.90
17252;DHT22;8742;51.716;8.790;2023-07-13T03:36:14;15.90;99.90
17252;DHT22;8742;51.716;8.790;2023-07-13T03:38:46;15.90;99.90
17252;DHT22;8742;51.716;8.790;2023-07-13T03:41:13;15.90;99.90
17252;DHT22;8742;51.716;8.790;2023-07-13T03:43:40;15.90;99.90
17252;DHT22;8742;51.716;8.790;2023-07-13T03:46:07;15.90;99.90
17252;DHT22;8742;51.716;8.790;2023-07-13T03:48:34;15.90;99.90
17252;DHT22;8742;51.716;8.790;2023-07-13T03:51:01;15.90;99.90
17252;DHT22;8742;51.716;8.790;2023-07-13T03:53:28;15.90;99.90
17252;DHT22;8742;51.716;8.790;2023-07-13T03:55:56;15.90;99.90
17252;DHT22;8742;51.716;8.790;2023-07-13T03:58:27;15.90;99.90
17252;DHT22;8742;51.716;8.790;2023-07-13T04:00:53;15.90;99.90
17252;DHT22;8742;51.716;8.790;2023-07-13T04:03:20;15.90;99.90
17252;DHT22;8742;51.716;8.790;2023-07-13T04:05:47;15.90;99.90
17252;DHT22;8742;51.716;8.790;2023-07-13T04:08:13;15.90;99.90
17252;DHT22;8742;51.716;8.790;2023-07-13T04:10:40;15.90;99.90
17252;DHT22;8742;51.716;8.790;2023-07-13T04:13:09;15.90;99.90
17252;DHT22;8742;51.716;8.790;2023-07-13T04:15:36;15.90;99.90
17252;DHT22;8742;51.716;8.790;2023-07-13T04:18:02;15.90;99.90
17252;DHT22;8742;51.716;8.790;2023-07-13T04:20:29;15.90;99.90
17252;DHT22;8742;51.716;8.790;2023-07-13T04:22:56;15.90;99.90
17252;DHT22;8742;51.716;8.790;2023-07-13T04:25:24;15.90;99.90
17252;DHT22;8742;51.716;8.790;2023-07-13T04:27:52;15.90;99.90
17252;DHT22;8742;51.716;8.790;2023-07-13T04:30:20;16.00;99.90
17252;DHT22;8742;51.716;8.790;2023-07-13T04:32:47;16.00;99.90
17252;DHT22;8742;51.716;8.790;2023-07-13T04:35:14;16.00;99.90
17252;DHT22;8742;51.716;8.790;2023-07-13T04:37:41;16.00;99.90
17252;DHT22;8742;51.716;8.790;2023-07-13T04:40:09;16.10;99.90
17252;DHT22;8742;51.716;8.790;2023-07-13T04:42:37;16.10;99.90
17252;DHT22;8742;51.716;8.790;2023-07-13T04:45:05;16.20;99.90
17252;DHT22;8742;51.716;8.790;2023-07-13T04:47:33;16.20;99.90
17252;DHT22;8742;51.716;8.790;2023-07-13T04:50:00;16.30;99.90
17252;DHT22;8742;51.716;8.790;2023-07-13T04:52:27;16.30;99.90
17252;DHT22;8742;51.716;8.790;2023-07-13T04:54:54;16.40;99.90
17252;DHT22;8742;51.716;8.790;2023-07-13T04:57:21;16.50;99.90
17252;DHT22;8742;51.716;8.790;2023-07-13T04:59:48;16.50;99.90
17252;DHT22;8742;51.716;8.790;2023-07-13T05:02:15;16.50;99.90
17252;DHT22;8742;51.716;8.790;2023-07-13T05:04:46;16.60;99.90
17252;DHT22;8742;51.716;8.790;2023-07-13T05:07:13;16.60;99.90
17252;DHT22;8742;51.716;8.790;2023-07-13T05:09:40;16.70;99.90
17252;DHT22;8742;51.716;8.790;2023-07-13T05:12:07;16.70;99.90
17252;DHT22;8742;51.716;8.790;2023-07-13T05:14:35;16.80;99.90
17252;DHT22;8742;51.716;8.790;2023-07-13T05:17:02;16.80;99.90
17252;DHT22;8742;51.716;8.790;2023-07-13T05:19:29;16.90;99.90
17252;DHT22;8742;51.716;8.790;2023-07-13T05:21:57;16.90;99.90
17252;DHT22;8742;51.716;8.790;2023-07-13T05:24:24;17.00;99.90
17252;DHT22;8742;51.716;8.790;2023-07-13T05:26:52;17.00;99.90
17252;DHT22;8742;51.716;8.790;2023-07-13T05:29:19;17.00;99.90
17252;DHT22;8742;51.716;8.790;2023-07-13T05:31:46;17.20;99.90
17252;DHT22;8742;51.716;8.790;2023-07-13T05:34:13;17.20;99.90
17252;DHT22;8742;51.716;8.790;2023-07-13T05:36:42;17.30;99.90
17252;DHT22;8742;51.716;8.790;2023-07-13T05:39:10;17.30;99.90
17252;DHT22;8742;51.716;8.790;2023-07-13T05:41:37;17.30;99.90
17252;DHT22;8742;51.716;8.790;2023-07-13T05:44:04;17.40;99.90
17252;DHT22;8742;51.716;8.790;2023-07-13T05:46:31;17.40;99.90
17252;DHT22;8742;51.716;8.790;2023-07-13T05:48:57;17.50;99.90
17252;DHT22;8742;51.716;8.790;2023-07-13T05:51:24;17.50;99.90
17252;DHT22;8742;51.716;8.790;2023-07-13T05:53:51;17.60;99.90
17252;DHT22;8742;51.716;8.790;2023-07-13T05:56:19;17.60;99.90
17252;DHT22;8742;51.716;8.790;2023-07-13T05:58:47;17.70;99.90
17252;DHT22;8742;51.716;8.790;2023-07-13T06:01:15;17.70;99.90
17252;DHT22;8742;51.716;8.790;2023-07-13T06:03:42;17.80;99.90
17252;DHT22;8742;51.716;8.790;2023-07-13T06:06:10;17.90;99.90
17252;DHT22;8742;51.716;8.790;2023-07-13T06:08:37;17.90;99.90
17252;DHT22;8742;51.716;8.790;2023-07-13T06:11:06;18.00;99.90
17252;DHT22;8742;51.716;8.790;2023-07-13T06:13:34;18.00;99.90
17252;DHT22;8742;51.716;8.790;2023-07-13T06:16:02;18.00;99.90
17252;DHT22;8742;51.716;8.790;2023-07-13T06:18:31;18.00;99.90
17252;DHT22;8742;51.716;8.790;2023-07-13T06:20:57;18.00;99.90
17252;DHT22;8742;51.716;8.790;2023-07-13T06:23:24;18.00;99.90
17252;DHT22;8742;51.716;8.790;2023-07-13T06:25:52;17.90;99.90
17252;DHT22;8742;51.716;8.790;2023-07-13T06:28:19;17.90;99.90
17252;DHT22;8742;51.716;8.790;2023-07-13T06:30:47;17.90;99.90
17252;DHT22;8742;51.716;8.790;2023-07-13T06:33:14;18.00;99.90
17252;DHT22;8742;51.716;8.790;2023-07-13T06:35:41;18.00;99.90
17252;DHT22;8742;51.716;8.790;2023-07-13T06:38:08;18.00;99.90
17252;DHT22;8742;51.716;8.790;2023-07-13T06:40:34;18.00;99.90
17252;DHT22;8742;51.716;8.790;2023-07-13T06:43:01;18.10;99.90
17252;DHT22;8742;51.716;8.790;2023-07-13T06:45:28;18.10;99.90
17252;DHT22;8742;51.716;8.790;2023-07-13T06:47:56;18.20;99.90
17252;DHT22;8742;51.716;8.790;2023-07-13T06:50:23;18.20;99.90
17252;DHT22;8742;51.716;8.790;2023-07-13T06:52:50;18.30;99.90
17252;DHT22;8742;51.716;8.790;2023-07-13T06:55:18;18.40;99.90
17252;DHT22;8742;51.716;8.790;2023-07-13T06:57:45;18.50;99.90
17252;DHT22;8742;51.716;8.790;2023-07-13T07:00:13;18.50;99.90
17252;DHT22;8742;51.716;8.790;2023-07-13T07:02:40;18.60;99.90
17252;DHT22;8742;51.716;8.790;2023-07-13T07:05:08;18.70;99.90
17252;DHT22;8742;51.716;8.790;2023-07-13T07:07:35;18.80;99.90
17252;DHT22;8742;51.716;8.790;2023-07-13T07:10:02;18.80;99.90
17252;DHT22;8742;51.716;8.790;2023-07-13T07:12:29;18.90;99.90
17252;DHT22;8742;51.716;8.790;2023-07-13T07:14:56;19.10;99.90
17252;DHT22;8742;51.716;8.790;2023-07-13T07:17:23;19.20;99.90
17252;DHT22;8742;51.716;8.790;2023-07-13T07:19:50;19.30;99.90
17252;DHT22;8742;51.716;8.790;2023-07-13T07:22:20;19.40;99.90
17252;DHT22;8742;51.716;8.790;2023-07-13T07:24:47;19.50;99.90
17252;DHT22;8742;51.716;8.790;2023-07-13T07:27:14;19.60;99.90
17252;DHT22;8742;51.716;8.790;2023-07-13T07:29:46;19.80;99.90
17252;DHT22;8742;51.716;8.790;2023-07-13T07:32:14;19.90;99.90
17252;DHT22;8742;51.716;8.790;2023-07-13T07:34:40;20.00;99.90
17252;DHT22;8742;51.716;8.790;2023-07-13T07:37:11;20.00;99.90
17252;DHT22;8742;51.716;8.790;2023-07-13T07:39:40;20.10;99.90
17252;DHT22;8742;51.716;8.790;2023-07-13T07:42:07;20.30;99.90
17252;DHT22;8742;51.716;8.790;2023-07-13T07:44:34;20.40;99.90
17252;DHT22;8742;51.716;8.790;2023-07-13T07:47:01;20.50;99.90
17252;DHT22;8742;51.716;8.790;2023-07-13T07:49:27;20.60;99.90
17252;DHT22;8742;51.716;8.790;2023-07-13T07:51:57;20.60;99.90
17252;DHT22;8742;51.716;8.790;2023-07-13T07:54:24;20.50;99.90
17252;DHT22;8742;51.716;8.790;2023-07-13T07:56:52;20.50;99.90
17252;DHT22;8742;51.716;8.790;2023-07-13T07:59:19;20.40;99.90
17252;DHT22;8742;51.716;8.790;2023-07-13T08:01:46;20.50;99.90
17252;DHT22;8742;51.716;8.790;2023-07-13T08:04:15;20.70;99.90
17252;DHT22;8742;51.716;8.790;2023-07-13T08:06:45;21.10;99.90
17252;DHT22;8742;51.716;8.790;2023-07-13T08:09:12;21.50;99.90
17252;DHT22;8742;51.716;8.790;2023-07-13T08:11:38;21.80;99.90
17252;DHT22;8742;51.716;8.790;2023-07-13T08:14:07;22.40;99.90
17252;DHT22;8742;51.716;8.790;2023-07-13T08:16:34;22.80;99.90
17252;DHT22;8742;51.716;8.790;2023-07-13T08:19:01;22.90;99.90
17252;DHT22;8742;51.716;8.790;2023-07-13T08:21:29;23.20;99.90
17252;DHT22;8742;51.716;8.790;2023-07-13T08:23:56;23.30;99.90
17252;DHT22;8742;51.716;8.790;2023-07-13T08:26:23;23.40;99.90
17252;DHT22;8742;51.716;8.790;2023-07-13T08:28:50;23.60;99.90
17252;DHT22;8742;51.716;8.790;2023-07-13T08:31:18;23.60;99.90
17252;DHT22;8742;51.716;8.790;2023-07-13T08:33:45;23.50;99.90
17252;DHT22;8742;51.716;8.790;2023-07-13T08:36:12;23.20;99.90
17252;DHT22;8742;51.716;8.790;2023-07-13T08:38:39;23.30;99.90
17252;DHT22;8742;51.716;8.790;2023-07-13T08:41:21;23.70;99.90
17252;DHT22;8742;51.716;8.790;2023-07-13T08:43:52;24.40;99.90
17252;DHT22;8742;51.716;8.790;2023-07-13T08:46:25;24.90;99.90
17252;DHT22;8742;51.716;8.790;2023-07-13T08:48:55;25.20;98.90
17252;DHT22;8742;51.716;8.790;2023-07-13T08:51:32;25.50;98.90
17252;DHT22;8742;51.716;8.790;2023-07-13T08:54:03;25.90;97.20
17252;DHT22;8742;51.716;8.790;2023-07-13T08:56:32;26.20;97.30
17252;DHT22;8742;51.716;8.790;2023-07-13T08:59:02;26.50;96.50
17252;DHT22;8742;51.716;8.790;2023-07-13T09:01:47;26.60;96.30
17252;DHT22;8742;51.716;8.790;2023-07-13T09:04:18;27.00;95.40
17252;DHT22;8742;51.716;8.790;2023-07-13T09:07:01;27.40;95.10
17252;DHT22;8742;51.716;8.790;2023-07-13T09:09:36;27.70;93.90
17252;DHT22;8742;51.716;8.790;2023-07-13T09:12:11;27.70;91.90
17252;DHT22;8742;51.716;8.790;2023-07-13T09:14:42;27.40;91.60
17252;DHT22;8742;51.716;8.790;2023-07-13T09:17:18;26.90;92.10
17252;DHT22;8742;51.716;8.790;2023-07-13T09:19:49;26.40;92.20
17252;DHT22;8742;51.716;8.790;2023-07-13T09:22:20;26.00;92.70
17252;DHT22;8742;51.716;8.790;2023-07-13T09:24:54;26.10;93.00
17252;DHT22;8742;51.716;8.790;2023-07-13T09:27:26;25.90;92.40
17252;DHT22;8742;51.716;8.790;2023-07-13T09:30:15;25.80;92.50
17252;DHT22;8742;51.716;8.790;2023-07-13T09:32:51;26.10;93.20
17252;DHT22;8742;51.716;8.790;2023-07-13T09:35:23;26.70;92.50
17252;DHT22;8742;51.716;8.790;2023-07-13T09:37:56;27.30;91.60
17252;DHT22;8742;51.716;8.790;2023-07-13T09:40:53;27.90;90.80
17252;DHT22;8742;51.716;8.790;2023-07-13T09:43:25;28.50;89.50
17252;DHT22;8742;51.716;8.790;2023-07-13T09:45:55;28.50;89.00
17252;DHT22;8742;51.716;8.790;2023-07-13T09:48:23;28.70;88.10
17252;DHT22;8742;51.716;8.790;2023-07-13T09:50:54;28.90;85.80
17252;DHT22;8742;51.716;8.790;2023-07-13T09:53:24;29.00;84.80
17252;DHT22;8742;51.716;8.790;2023-07-13T09:56:11;29.10;83.80
17252;DHT22;8742;51.716;8.790;2023-07-13T09:58:46;28.80;82.60
17252;DHT22;8742;51.716;8.790;2023-07-13T10:01:31;28.30;83.70
17252;DHT22;8742;51.716;8.790;2023-07-13T10:04:00;28.10;83.50
17252;DHT22;8742;51.716;8.790;2023-07-13T10:06:53;27.90;83.10
17252;DHT22;8742;51.716;8.790;2023-07-13T10:09:38;27.60;83.30
17252;DHT22;8742;51.716;8.790;2023-07-13T10:12:13;27.20;83.80
17252;DHT22;8742;51.716;8.790;2023-07-13T10:14:42;26.80;84.20
17252;DHT22;8742;51.716;8.790;2023-07-13T10:17:12;26.40;84.40
17252;DHT22;8742;51.716;8.790;2023-07-13T10:19:42;26.00;85.00
17252;DHT22;8742;51.716;8.790;2023-07-13T10:22:14;25.50;86.30
17252;DHT22;8742;51.716;8.790;2023-07-13T10:24:46;25.30;86.10
17252;DHT22;8742;51.716;8.790;2023-07-13T10:27:16;25.30;86.30
17252;DHT22;8742;51.716;8.790;2023-07-13T10:29:47;25.70;87.70
17252;DHT22;8742;51.716;8.790;2023-07-13T10:32:15;26.10;87.10
17252;DHT22;8742;51.716;8.790;2023-07-13T10:34:46;26.50;85.30
17252;DHT22;8742;51.716;8.790;2023-07-13T10:37:19;26.60;84.20
17252;DHT22;8742;51.716;8.790;2023-07-13T10:39:47;26.60;83.70
17252;DHT22;8742;51.716;8.790;2023-07-13T10:42:18;26.50;83.70
17252;DHT22;8742;51.716;8.790;2023-07-13T10:44:48;26.30;83.90
17252;DHT22;8742;51.716;8.790;2023-07-13T10:47:16;26.10;84.10
17252;DHT22;8742;51.716;8.790;2023-07-13T10:49:46;25.90;84.00
17252;DHT22;8742;51.716;8.790;2023-07-13T10:52:40;25.70;84.70
17252;DHT22;8742;51.716;8.790;2023-07-13T10:55:39;25.50;85.10
17252;DHT22;8742;51.716;8.790;2023-07-13T10:58:15;25.20;85.10
17252;DHT22;8742;51.716;8.790;2023-07-13T11:00:49;25.50;86.50
17252;DHT22;8742;51.716;8.790;2023-07-13T11:03:20;26.10;85.60
17252;DHT22;8742;51.716;8.790;2023-07-13T11:05:50;26.20;84.60
17252;DHT22;8742;51.716;8.790;2023-07-13T11:08:33;26.30;84.40
17252;DHT22;8742;51.716;8.790;2023-07-13T11:11:02;26.50;84.90
17252;DHT22;8742;51.716;8.790;2023-07-13T11:13:56;27.10;85.90
17252;DHT22;8742;51.716;8.790;2023-07-13T11:19:40;27.30;82.70
17252;DHT22;8742;51.716;8.790;2023-07-13T11:22:20;26.80;82.80
17252;DHT22;8742;51.716;8.790;2023-07-13T11:24:56;26.50;83.10
17252;DHT22;8742;51.716;8.790;2023-07-13T11:27:36;26.10;83.10
17252;DHT22;8742;51.716;8.790;2023-07-13T11:30:21;25.70;84.10
17252;DHT22;8742;51.716;8.790;2023-07-13T11:33:04;25.30;84.70
17252;DHT22;8742;51.716;8.790;2023-07-13T11:35:34;25.40;86.60
17252;DHT22;8742;51.716;8.790;2023-07-13T11:38:12;26.00;85.90
17252;DHT22;8742;51.716;8.790;2023-07-13T11:40:41;26.90;85.20
17252;DHT22;8742;51.716;8.790;2023-07-13T11:43:13;27.90;84.30
17252;DHT22;8742;51.716;8.790;2023-07-13T11:45:40;28.40;81.40
17252;DHT22;8742;51.716;8.790;2023-07-13T11:48:20;28.40;79.60
17252;DHT22;8742;51.716;8.790;2023-07-13T11:50:59;28.30;79.80
17252;DHT22;8742;51.716;8.790;2023-07-13T11:53:30;28.10;78.80
17252;DHT22;8742;51.716;8.790;2023-07-13T11:56:01;28.10;78.60
17252;DHT22;8742;51.716;8.790;2023-07-13T11:58:28;27.80;77.10
17252;DHT22;8742;51.716;8.790;2023-07-13T12:00:58;27.40;75.90
17252;DHT22;8742;51.716;8.790;2023-07-13T12:03:26;27.00;76.90
17252;DHT22;8742;51.716;8.790;2023-07-13T12:05:59;26.60;78.20
17252;DHT22;8742;51.716;8.790;2023-07-13T12:08:28;26.40;79.40
17252;DHT22;8742;51.716;8.790;2023-07-13T12:11:05;26.50;79.60
17252;DHT22;8742;51.716;8.790;2023-07-13T12:13:36;26.90;80.00
17252;DHT22;8742;51.716;8.790;2023-07-13T12:16:12;27.20;78.90
17252;DHT22;8742;51.716;8.790;2023-07-13T12:18:42;27.40;79.80
17252;DHT22;8742;51.716;8.790;2023-07-13T12:21:13;27.50;79.40
17252;DHT22;8742;51.716;8.790;2023-07-13T12:23:43;27.50;79.00
17252;DHT22;8742;51.716;8.790;2023-07-13T12:26:11;27.40;77.20
17252;DHT22;8742;51.716;8.790;2023-07-13T12:28:46;27.20;78.20
17252;DHT22;8742;51.716;8.790;2023-07-13T12:31:41;26.90;76.30
17252;DHT22;8742;51.716;8.790;2023-07-13T12:34:10;26.70;75.90
17252;DHT22;8742;51.716;8.790;2023-07-13T12:36:44;26.50;75.60
17252;DHT22;8742;51.716;8.790;2023-07-13T12:39:16;26.20;75.20
17252;DHT22;8742;51.716;8.790;2023-07-13T12:41:44;25.90;76.50
17252;DHT22;8742;51.716;8.790;2023-07-13T12:44:12;25.70;76.90
17252;DHT22;8742;51.716;8.790;2023-07-13T12:46:52;25.50;77.00
17252;DHT22;8742;51.716;8.790;2023-07-13T12:49:24;25.40;76.70
17252;DHT22;8742;51.716;8.790;2023-07-13T12:51:56;25.40;77.00
17252;DHT22;8742;51.716;8.790;2023-07-13T12:54:27;25.40;76.90
17252;DHT22;8742;51.716;8.790;2023-07-13T12:56:54;25.40;77.40
17252;DHT22;8742;51.716;8.790;2023-07-13T12:59:25;25.40;78.60
17252;DHT22;8742;51.716;8.790;2023-07-13T13:01:53;25.60;78.90
17252;DHT22;8742;51.716;8.790;2023-07-13T13:04:20;25.80;78.10
17252;DHT22;8742;51.716;8.790;2023-07-13T13:06:49;25.90;77.90
17252;DHT22;8742;51.716;8.790;2023-07-13T13:09:17;25.90;77.70
17252;DHT22;8742;51.716;8.790;2023-07-13T13:11:47;26.00;78.70
17252;DHT22;8742;51.716;8.790;2023-07-13T13:14:13;26.40;77.80
17252;DHT22;8742;51.716;8.790;2023-07-13T13:16:47;26.80;77.60
17252;DHT22;8742;51.716;8.790;2023-07-13T13:19:17;27.10;77.10
17252;DHT22;8742;51.716;8.790;2023-07-13T13:21:46;27.10;76.10
17252;DHT22;8742;51.716;8.790;2023-07-13T13:24:14;26.80;76.40
17252;DHT22;8742;51.716;8.790;2023-07-13T13:26:42;26.70;76.20
17252;DHT22;8742;51.716;8.790;2023-07-13T13:29:14;26.60;76.90
17252;DHT22;8742;51.716;8.790;2023-07-13T13:31:42;26.60;77.70
17252;DHT22;8742;51.716;8.790;2023-07-13T13:34:11;27.10;76.90
17252;DHT22;8742;51.716;8.790;2023-07-13T13:36:39;27.80;76.90
17252;DHT22;8742;51.716;8.790;2023-07-13T13:39:17;28.40;75.50
17252;DHT22;8742;51.716;8.790;2023-07-13T13:41:45;28.80;73.70
17252;DHT22;8742;51.716;8.790;2023-07-13T13:44:14;29.00;73.70
17252;DHT22;8742;51.716;8.790;2023-07-13T13:46:42;29.60;74.30
17252;DHT22;8742;51.716;8.790;2023-07-13T13:49:13;30.00;70.60
17252;DHT22;8742;51.716;8.790;2023-07-13T13:51:41;30.30;69.20
17252;DHT22;8742;51.716;8.790;2023-07-13T13:54:11;30.70;68.00
17252;DHT22;8742;51.716;8.790;2023-07-13T13:56:38;31.00;66.50
17252;DHT22;8742;51.716;8.790;2023-07-13T13:59:05;30.80;66.30
17252;DHT22;8742;51.716;8.790;2023-07-13T14:01:36;30.50;66.60
17252;DHT22;8742;51.716;8.790;2023-07-13T14:04:04;30.80;64.80
17252;DHT22;8742;51.716;8.790;2023-07-13T14:06:32;30.60;65.50
17252;DHT22;8742;51.716;8.790;2023-07-13T14:08:59;30.30;66.00
17252;DHT22;8742;51.716;8.790;2023-07-13T14:11:26;30.70;62.40
17252;DHT22;8742;51.716;8.790;2023-07-13T14:13:56;31.20;59.90
17252;DHT22;8742;51.716;8.790;2023-07-13T14:16:26;31.00;60.60
17252;DHT22;8742;51.716;8.790;2023-07-13T14:18:56;31.30;59.50
17252;DHT22;8742;51.716;8.790;2023-07-13T14:21:26;31.80;58.80
17252;DHT22;8742;51.716;8.790;2023-07-13T14:23:53;32.30;58.70
17252;DHT22;8742;51.716;8.790;2023-07-13T14:26:22;32.10;58.10
17252;DHT22;8742;51.716;8.790;2023-07-13T14:28:52;31.10;58.90
17252;DHT22;8742;51.716;8.790;2023-07-13T14:31:20;30.10;61.90
17252;DHT22;8742;51.716;8.790;2023-07-13T14:33:47;30.30;61.30
17252;DHT22;8742;51.716;8.790;2023-07-13T14:36:24;30.10;61.00
17252;DHT22;8742;51.716;8.790;2023-07-13T14:38:52;30.10;60.60
17252;DHT22;8742;51.716;8.790;2023-07-13T14:41:19;29.50;61.40
17252;DHT22;8742;51.716;8.790;2023-07-13T14:43:47;28.90;62.40
17252;DHT22;8742;51.716;8.790;2023-07-13T14:46:28;28.70;62.90
17252;DHT22;8742;51.716;8.790;2023-07-13T14:49:01;28.30;63.50
17252;DHT22;8742;51.716;8.790;2023-07-13T14:51:30;27.80;64.20
17252;DHT22;8742;51.716;8.790;2023-07-13T14:53:57;27.30;64.60
17252;DHT22;8742;51.716;8.790;2023-07-13T14:56:25;27.10;65.30
17252;DHT22;8742;51.716;8.790;2023-07-13T14:58:52;27.30;64.70
17252;DHT22;8742;51.716;8.790;2023-07-13T15:01:20;27.10;64.20
17252;DHT22;8742;51.716;8.790;2023-07-13T15:03:50;26.80;65.70
17252;DHT22;8742;51.716;8.790;2023-07-13T15:06:17;26.40;65.80
17252;DHT22;8742;51.716;8.790;2023-07-13T15:08:47;26.10;66.40
17252;DHT22;8742;51.716;8.790;2023-07-13T15:11:15;25.70;68.40
17252;DHT22;8742;51.716;8.790;2023-07-13T15:13:42;25.20;71.10
17252;DHT22;8742;51.716;8.790;2023-07-13T15:16:16;24.80;73.50
17252;DHT22;8742;51.716;8.790;2023-07-13T15:18:45;24.30;74.80
17252;DHT22;8742;51.716;8.790;2023-07-13T15:21:16;23.90;77.50
17252;DHT22;8742;51.716;8.790;2023-07-13T15:23:47;23.40;77.30
17252;DHT22;8742;51.716;8.790;2023-07-13T15:26:14;23.10;81.00
17252;DHT22;8742;51.716;8.790;2023-07-13T15:28:41;22.70;83.10
17252;DHT22;8742;51.716;8.790;2023-07-13T15:31:21;22.30;83.10
17252;DHT22;8742;51.716;8.790;2023-07-13T15:33:49;21.90;86.30
17252;DHT22;8742;51.716;8.790;2023-07-13T15:36:17;21.50;87.60
17252;DHT22;8742;51.716;8.790;2023-07-13T15:38:47;21.10;89.30
17252;DHT22;8742;51.716;8.790;2023-07-13T15:41:19;20.80;90.80
17252;DHT22;8742;51.716;8.790;2023-07-13T15:43:48;20.40;90.90
17252;DHT22;8742;51.716;8.790;2023-07-13T15:46:16;20.10;91.70
17252;DHT22;8742;51.716;8.790;2023-07-13T15:48:43;19.80;91.50
17252;DHT22;8742;51.716;8.790;2023-07-13T15:51:15;19.60;93.00
17252;DHT22;8742;51.716;8.790;2023-07-13T15:53:47;19.50;93.30
17252;DHT22;8742;51.716;8.790;2023-07-13T15:56:18;19.30;94.10
17252;DHT22;8742;51.716;8.790;2023-07-13T15:58:46;19.00;93.30
17252;DHT22;8742;51.716;8.790;2023-07-13T16:01:13;18.90;93.90
17252;DHT22;8742;51.716;8.790;2023-07-13T16:03:40;18.80;93.80